createdAt,value
2019-05-11T00:00:37.838Z,6.10
2019-05-11T00:01:37.825Z,6.90
2019-05-11T00:02:37.884Z,7.00
2019-05-11T00:03:37.810Z,7.10
2019-05-11T00:04:37.827Z,6.80
2019-05-11T00:05:37.801Z,7.00
2019-05-11T00:06:37.805Z,6.90
2019-05-11T00:07:37.786Z,8.00
2019-05-11T00:08:37.753Z,6.90
2019-05-11T00:09:37.735Z,7.10
2019-05-11T00:10:37.731Z,7.30
2019-05-11T00:11:37.752Z,7.70
2019-05-11T00:12:37.723Z,7.50
2019-05-11T00:13:37.715Z,9.00
2019-05-11T00:14:37.687Z,7.90
2019-05-11T00:15:37.688Z,7.50
2019-05-11T00:16:37.667Z,8.30
2019-05-11T00:17:37.663Z,7.00
2019-05-11T00:18:37.662Z,7.50
2019-05-11T00:19:37.637Z,8.80
2019-05-11T00:20:37.632Z,9.30
2019-05-11T00:21:37.603Z,8.20
2019-05-11T00:22:37.605Z,7.90
2019-05-11T00:23:37.588Z,23.40
2019-05-11T00:24:37.593Z,7.60
2019-05-11T00:25:37.566Z,7.50
2019-05-11T00:26:37.548Z,9.70
2019-05-11T00:27:37.544Z,8.30
2019-05-11T00:28:37.558Z,8.40
2019-05-11T00:29:37.532Z,8.40
2019-05-11T00:30:37.511Z,7.80
2019-05-11T00:31:37.498Z,9.00
2019-05-11T00:32:37.483Z,8.10
2019-05-11T00:33:37.471Z,8.60
2019-05-11T00:34:37.472Z,7.90
2019-05-11T00:35:37.449Z,9.50
2019-05-11T00:36:37.459Z,9.00
2019-05-11T00:37:37.428Z,9.50
2019-05-11T00:38:37.419Z,10.80
2019-05-11T00:39:37.459Z,10.60
2019-05-11T00:40:37.405Z,9.10
2019-05-11T00:41:37.449Z,8.10
2019-05-11T00:42:37.370Z,8.70
2019-05-11T00:43:37.369Z,8.30
2019-05-11T00:44:37.366Z,8.80
2019-05-11T00:45:37.332Z,12.40
2019-05-11T00:46:37.323Z,8.40
2019-05-11T00:47:37.325Z,11.20
2019-05-11T00:48:37.296Z,8.90
2019-05-11T00:49:37.319Z,8.80
2019-05-11T00:50:39.722Z,9.20
2019-05-11T00:51:37.269Z,9.20
2019-05-11T00:52:37.264Z,10.00
2019-05-11T00:53:37.280Z,9.40
2019-05-11T00:54:37.262Z,10.30
2019-05-11T00:55:37.254Z,11.00
2019-05-11T00:56:37.209Z,9.60
2019-05-11T00:57:37.209Z,10.10
2019-05-11T00:58:37.194Z,10.40
2019-05-11T00:59:37.288Z,11.20
2019-05-11T01:00:37.183Z,11.10
2019-05-11T01:01:37.162Z,10.10
2019-05-11T01:02:37.156Z,10.20
2019-05-11T01:03:37.136Z,10.80
2019-05-11T01:04:37.144Z,10.20
2019-05-11T01:05:37.227Z,10.30
2019-05-11T01:06:37.130Z,9.10
2019-05-11T01:07:37.099Z,10.20
2019-05-11T01:08:37.093Z,9.10
2019-05-11T01:09:37.065Z,10.40
2019-05-11T01:10:42.045Z,11.90
2019-05-11T01:11:38.044Z,10.20
2019-05-11T01:12:37.035Z,10.80
2019-05-11T01:13:37.019Z,10.30
2019-05-11T01:14:37.005Z,11.80
2019-05-11T01:15:37.012Z,10.70
2019-05-11T01:16:37.010Z,13.60
2019-05-11T01:17:36.988Z,11.20
2019-05-11T01:18:36.965Z,12.10
2019-05-11T01:19:36.948Z,11.80
2019-05-11T01:20:36.971Z,10.80
2019-05-11T01:21:36.938Z,11.20
2019-05-11T01:22:36.916Z,11.20
2019-05-11T01:23:36.915Z,11.00
2019-05-11T01:24:36.891Z,11.70
2019-05-11T01:25:36.910Z,12.40
2019-05-11T01:26:36.881Z,11.80
2019-05-11T01:27:36.896Z,11.20
2019-05-11T01:28:36.868Z,11.90
2019-05-11T01:29:36.847Z,12.20
2019-05-11T01:30:38.743Z,12.10
2019-05-11T01:31:36.830Z,11.90
2019-05-11T01:32:36.828Z,11.60
2019-05-11T01:33:36.791Z,11.50
2019-05-11T01:34:36.807Z,13.50
2019-05-11T01:35:36.783Z,13.20
2019-05-11T01:36:36.771Z,11.30
2019-05-11T01:37:36.747Z,11.20
2019-05-11T01:38:36.747Z,12.30
2019-05-11T01:39:36.740Z,12.40
2019-05-11T01:40:36.714Z,11.90
2019-05-11T01:41:36.717Z,11.40
2019-05-11T01:42:36.695Z,10.50
2019-05-11T01:43:36.677Z,10.60
2019-05-11T01:44:36.678Z,10.70
2019-05-11T01:45:36.654Z,12.50
2019-05-11T01:46:36.665Z,11.60
2019-05-11T01:47:36.632Z,11.50
2019-05-11T01:48:36.621Z,12.40
2019-05-11T01:49:36.610Z,13.60
2019-05-11T01:50:36.713Z,11.50
2019-05-11T01:51:36.626Z,12.30
2019-05-11T01:52:36.584Z,12.10
2019-05-11T01:53:36.584Z,12.90
2019-05-11T01:54:36.555Z,11.80
2019-05-11T01:55:36.544Z,11.20
2019-05-11T01:56:36.587Z,11.00
2019-05-11T01:57:36.546Z,12.90
2019-05-11T01:58:36.519Z,11.60
2019-05-11T01:59:36.516Z,12.80
2019-05-11T02:00:36.493Z,11.60
2019-05-11T02:01:36.499Z,12.10
2019-05-11T02:02:36.470Z,11.70
2019-05-11T02:03:36.454Z,11.30
2019-05-11T02:04:36.447Z,11.50
2019-05-11T02:05:36.502Z,10.80
2019-05-11T02:06:36.456Z,10.90
2019-05-11T02:07:36.458Z,11.40
2019-05-11T02:08:36.421Z,11.10
2019-05-11T02:09:36.386Z,11.80
2019-05-11T02:10:36.384Z,12.30
2019-05-11T02:11:36.424Z,13.90
2019-05-11T02:12:36.366Z,11.70
2019-05-11T02:13:36.346Z,12.30
2019-05-11T02:14:36.343Z,11.70
2019-05-11T02:15:36.342Z,12.60
2019-05-11T02:16:36.312Z,13.30
2019-05-11T02:17:36.326Z,13.40
2019-05-11T02:18:36.293Z,13.20
2019-05-11T02:19:36.278Z,12.80
2019-05-11T02:20:36.281Z,15.30
2019-05-11T02:21:36.252Z,13.90
2019-05-11T02:22:36.259Z,13.10
2019-05-11T02:23:36.261Z,12.00
2019-05-11T02:24:36.235Z,12.40
2019-05-11T02:25:36.236Z,14.10
2019-05-11T02:26:36.199Z,12.40
2019-05-11T02:27:36.206Z,14.10
2019-05-11T02:28:36.182Z,12.20
2019-05-11T02:29:36.206Z,13.60
2019-05-11T02:30:36.179Z,12.00
2019-05-11T02:31:36.149Z,13.70
2019-05-11T02:32:36.233Z,14.50
2019-05-11T02:33:36.158Z,12.30
2019-05-11T02:34:36.113Z,15.70
2019-05-11T02:35:36.127Z,15.50
2019-05-11T02:36:36.126Z,15.80
2019-05-11T02:37:36.099Z,14.30
2019-05-11T02:38:36.090Z,15.10
2019-05-11T02:39:36.059Z,13.90
2019-05-11T02:40:36.085Z,12.70
2019-05-11T02:41:37.534Z,16.10
2019-05-11T02:42:36.042Z,14.10
2019-05-11T02:43:36.032Z,13.00
2019-05-11T02:44:35.997Z,14.40
2019-05-11T02:45:35.989Z,13.30
2019-05-11T02:46:35.980Z,17.50
2019-05-11T02:47:35.966Z,13.60
2019-05-11T02:48:35.977Z,14.50
2019-05-11T02:49:35.953Z,12.80
2019-05-11T02:50:35.935Z,13.10
2019-05-11T02:51:35.950Z,14.60
2019-05-11T02:52:35.920Z,14.60
2019-05-11T02:53:35.928Z,12.30
2019-05-11T02:54:35.889Z,12.50
2019-05-11T02:55:35.877Z,13.40
2019-05-11T02:56:35.868Z,14.60
2019-05-11T02:57:35.857Z,13.40
2019-05-11T02:58:35.901Z,13.10
2019-05-11T02:59:35.836Z,13.70
2019-05-11T03:00:35.825Z,12.10
2019-05-11T03:01:35.810Z,14.40
2019-05-11T03:02:35.823Z,12.90
2019-05-11T03:03:35.793Z,12.70
2019-05-11T03:04:35.795Z,15.20
2019-05-11T03:05:35.772Z,14.50
2019-05-11T03:06:35.760Z,13.30
2019-05-11T03:07:35.860Z,14.70
2019-05-11T03:08:35.733Z,14.10
2019-05-11T03:09:35.741Z,15.70
2019-05-11T03:10:35.717Z,15.00
2019-05-11T03:11:53.690Z,15.30
2019-05-11T03:12:36.689Z,15.50
2019-05-11T03:13:35.684Z,13.70
2019-05-11T03:14:35.688Z,13.20
2019-05-11T03:15:35.666Z,15.20
2019-05-11T03:16:35.649Z,15.60
2019-05-11T03:17:35.643Z,13.80
2019-05-11T03:18:35.625Z,14.50
2019-05-11T03:19:35.634Z,14.60
2019-05-11T03:20:35.605Z,13.80
2019-05-11T03:21:35.596Z,14.40
2019-05-11T03:22:35.583Z,15.60
2019-05-11T03:23:35.574Z,15.00
2019-05-11T03:24:35.598Z,13.40
2019-05-11T03:25:35.549Z,15.00
2019-05-11T03:26:35.537Z,15.20
2019-05-11T03:27:35.530Z,16.40
2019-05-11T03:28:35.519Z,14.50
2019-05-11T03:29:35.512Z,14.50
2019-05-11T03:30:35.514Z,14.90
2019-05-11T03:31:35.508Z,14.90
2019-05-11T03:32:35.478Z,15.20
2019-05-11T03:33:35.468Z,16.00
2019-05-11T03:34:35.452Z,14.80
2019-05-11T03:35:35.456Z,13.60
2019-05-11T03:36:35.430Z,14.60
2019-05-11T03:37:35.443Z,13.50
2019-05-11T03:38:35.406Z,15.50
2019-05-11T03:39:35.397Z,13.50
2019-05-11T03:40:35.405Z,13.10
2019-05-11T03:41:35.377Z,14.20
2019-05-11T03:42:35.370Z,13.90
2019-05-11T03:43:35.352Z,12.30
2019-05-11T03:44:35.339Z,12.50
2019-05-11T03:45:35.364Z,12.60
2019-05-11T03:46:35.323Z,14.70
2019-05-11T03:47:35.312Z,12.40
2019-05-11T03:48:35.299Z,14.90
2019-05-11T03:49:35.287Z,13.50
2019-05-11T03:50:35.293Z,13.60
2019-05-11T03:51:35.270Z,14.40
2019-05-11T03:52:35.284Z,14.80
2019-05-11T03:53:35.249Z,14.70
2019-05-11T03:54:35.238Z,14.80
2019-05-11T03:55:35.233Z,14.70
2019-05-11T03:56:35.216Z,14.10
2019-05-11T03:57:35.209Z,12.90
2019-05-11T03:58:35.186Z,15.80
2019-05-11T03:59:35.174Z,14.00
2019-05-11T04:00:35.184Z,14.20
2019-05-11T04:01:35.173Z,12.40
2019-05-11T04:02:35.155Z,12.40
2019-05-11T04:03:35.203Z,13.50
2019-05-11T04:04:35.123Z,13.20
2019-05-11T04:05:35.135Z,14.30
2019-05-11T04:06:35.098Z,13.50
2019-05-11T04:07:35.088Z,13.70
2019-05-11T04:08:35.099Z,14.60
2019-05-11T04:09:35.084Z,15.80
2019-05-11T04:10:35.062Z,17.50
2019-05-11T04:11:35.066Z,16.30
2019-05-11T04:12:35.692Z,15.60
2019-05-11T04:13:35.047Z,18.00
2019-05-11T04:14:35.008Z,16.50
2019-05-11T04:15:35.005Z,18.60
2019-05-11T04:16:35.013Z,16.20
2019-05-11T04:17:34.993Z,15.10
2019-05-11T04:18:34.973Z,15.20
2019-05-11T04:19:34.953Z,15.20
2019-05-11T04:20:34.965Z,14.30
2019-05-11T04:21:34.973Z,12.60
2019-05-11T04:22:34.942Z,15.00
2019-05-11T04:23:34.936Z,14.80
2019-05-11T04:24:34.902Z,12.40
2019-05-11T04:25:34.902Z,12.40
2019-05-11T04:26:34.911Z,14.10
2019-05-11T04:27:34.880Z,11.30
2019-05-11T04:28:34.867Z,11.00
2019-05-11T04:29:34.850Z,11.00
2019-05-11T04:30:34.839Z,9.70
2019-05-11T04:31:34.868Z,11.50
2019-05-11T04:32:34.833Z,12.90
2019-05-11T04:33:34.808Z,9.40
2019-05-11T04:34:34.794Z,10.50
2019-05-11T04:35:34.802Z,9.80
2019-05-11T04:36:34.787Z,10.80
2019-05-11T04:37:34.789Z,10.40
2019-05-11T04:38:34.755Z,10.50
2019-05-11T04:39:34.752Z,11.40
2019-05-11T04:40:34.741Z,11.40
2019-05-11T04:41:34.775Z,11.10
2019-05-11T04:42:51.803Z,10.20
2019-05-11T04:43:35.714Z,11.20
2019-05-11T04:44:34.692Z,11.60
2019-05-11T04:45:35.595Z,10.40
2019-05-11T04:46:34.713Z,12.00
2019-05-11T04:47:34.660Z,12.20
2019-05-11T04:48:34.652Z,12.80
2019-05-11T04:49:34.635Z,11.10
2019-05-11T04:50:34.628Z,10.80
2019-05-11T04:51:34.630Z,10.10
2019-05-11T04:52:34.623Z,10.00
2019-05-11T04:53:34.616Z,11.50
2019-05-11T04:54:34.582Z,10.30
2019-05-11T04:55:34.564Z,10.60
2019-05-11T04:56:34.562Z,11.00
2019-05-11T04:57:34.574Z,10.70
2019-05-11T04:58:34.531Z,10.80
2019-05-11T04:59:34.528Z,10.40
2019-05-11T05:00:34.509Z,10.80
2019-05-11T05:01:34.502Z,10.00
2019-05-11T05:02:34.515Z,9.60
2019-05-11T05:03:40.734Z,11.70
2019-05-11T05:04:35.511Z,11.70
2019-05-11T05:05:34.482Z,10.80
2019-05-11T05:06:34.462Z,11.60
2019-05-11T05:07:34.474Z,11.70
2019-05-11T05:08:34.439Z,10.90
2019-05-11T05:09:36.043Z,12.10
2019-05-11T05:10:35.441Z,11.50
2019-05-11T05:11:36.867Z,12.40
2019-05-11T05:12:34.427Z,13.50
2019-05-11T05:13:34.380Z,12.40
2019-05-11T05:14:34.368Z,11.10
2019-05-11T05:15:34.349Z,13.60
2019-05-11T05:16:34.342Z,13.20
2019-05-11T05:17:34.340Z,11.40
2019-05-11T05:18:34.342Z,11.60
2019-05-11T05:19:34.315Z,11.50
2019-05-11T05:20:34.309Z,13.90
2019-05-11T05:21:34.282Z,11.50
2019-05-11T05:22:34.278Z,12.10
2019-05-11T05:23:34.286Z,11.30
2019-05-11T05:24:34.255Z,13.40
2019-05-11T05:25:34.245Z,13.30
2019-05-11T05:26:34.254Z,11.70
2019-05-11T05:27:34.216Z,12.60
2019-05-11T05:28:34.236Z,12.80
2019-05-11T05:29:34.197Z,13.10
2019-05-11T05:30:34.202Z,12.30
2019-05-11T05:31:34.219Z,11.30
2019-05-11T05:32:34.180Z,11.70
2019-05-11T05:33:34.194Z,14.40
2019-05-11T05:34:34.145Z,12.50
2019-05-11T05:35:34.137Z,13.00
2019-05-11T05:36:34.122Z,13.60
2019-05-11T05:37:34.108Z,11.60
2019-05-11T05:38:34.103Z,13.70
2019-05-11T05:39:34.130Z,12.10
2019-05-11T05:40:34.087Z,12.60
2019-05-11T05:41:34.066Z,13.80
2019-05-11T05:42:34.064Z,12.80
2019-05-11T05:43:34.068Z,12.80
2019-05-11T05:44:34.035Z,13.70
2019-05-11T05:45:34.035Z,13.90
2019-05-11T05:46:34.040Z,14.00
2019-05-11T05:47:34.004Z,13.30
2019-05-11T05:48:34.009Z,14.10
2019-05-11T05:49:33.985Z,14.30
2019-05-11T05:50:34.003Z,11.90
2019-05-11T05:51:33.959Z,12.60
2019-05-11T05:52:33.954Z,12.50
2019-05-11T05:53:33.953Z,14.40
2019-05-11T05:54:33.948Z,13.60
2019-05-11T05:55:33.916Z,13.10
2019-05-11T05:56:33.904Z,12.90
2019-05-11T05:57:33.913Z,11.50
2019-05-11T05:58:33.897Z,12.10
2019-05-11T05:59:33.897Z,11.20
2019-05-11T06:00:33.862Z,10.70
2019-05-11T06:01:33.856Z,11.70
2019-05-11T06:02:33.850Z,13.40
2019-05-11T06:03:33.836Z,12.70
2019-05-11T06:04:33.841Z,13.00
2019-05-11T06:05:33.842Z,12.00
2019-05-11T06:06:33.815Z,13.90
2019-05-11T06:07:33.810Z,11.90
2019-05-11T06:08:33.779Z,12.90
2019-05-11T06:09:33.798Z,11.90
2019-05-11T06:10:33.770Z,12.10
2019-05-11T06:11:33.747Z,11.00
2019-05-11T06:12:33.746Z,12.80
2019-05-11T06:13:44.835Z,12.20
2019-05-11T06:14:34.722Z,12.80
2019-05-11T06:15:33.710Z,12.80
2019-05-11T06:16:33.697Z,14.20
2019-05-11T06:17:33.681Z,11.80
2019-05-11T06:18:33.672Z,12.70
2019-05-11T06:19:33.676Z,12.50
2019-05-11T06:20:33.653Z,11.80
2019-05-11T06:21:33.651Z,11.40
2019-05-11T06:22:33.633Z,11.60
2019-05-11T06:23:33.620Z,11.40
2019-05-11T06:24:33.629Z,12.20
2019-05-11T06:25:33.616Z,12.90
2019-05-11T06:26:33.581Z,12.40
2019-05-11T06:27:33.589Z,9.90
2019-05-11T06:28:33.561Z,9.90
2019-05-11T06:29:33.553Z,9.50
2019-05-11T06:30:33.574Z,11.10
2019-05-11T06:31:33.561Z,11.50
2019-05-11T06:32:33.525Z,10.30
2019-05-11T06:33:33.504Z,10.80
2019-05-11T06:34:33.492Z,10.00
2019-05-11T06:35:33.513Z,9.90
2019-05-11T06:36:33.470Z,11.50
2019-05-11T06:37:33.462Z,9.90
2019-05-11T06:38:33.449Z,12.40
2019-05-11T06:39:33.447Z,9.70
2019-05-11T06:40:33.427Z,10.30
2019-05-11T06:41:33.438Z,10.50
2019-05-11T06:42:33.405Z,9.30
2019-05-11T06:43:33.395Z,9.40
2019-05-11T06:44:33.383Z,10.40
2019-05-11T06:45:33.377Z,10.00
2019-05-11T06:46:35.121Z,14.20
2019-05-11T06:47:33.363Z,10.10
2019-05-11T06:48:33.350Z,10.20
2019-05-11T06:49:33.340Z,10.60
2019-05-11T06:50:33.323Z,10.00
2019-05-11T06:51:33.333Z,9.70
2019-05-11T06:52:33.323Z,9.50
2019-05-11T06:53:33.285Z,9.90
2019-05-11T06:54:33.279Z,9.60
2019-05-11T06:55:33.268Z,9.10
2019-05-11T06:56:33.275Z,9.30
2019-05-11T06:57:33.252Z,9.20
2019-05-11T06:58:33.242Z,10.50
2019-05-11T06:59:33.233Z,10.30
2019-05-11T07:00:33.212Z,11.60
2019-05-11T07:01:33.216Z,10.70
2019-05-11T07:02:33.191Z,9.60
2019-05-11T07:03:33.189Z,10.10
2019-05-11T07:04:33.167Z,9.30
2019-05-11T07:05:33.161Z,10.00
2019-05-11T07:06:33.172Z,9.00
2019-05-11T07:07:46.593Z,10.30
2019-05-11T07:08:34.134Z,9.90
2019-05-11T07:09:33.122Z,11.00
2019-05-11T07:10:33.106Z,9.90
2019-05-11T07:11:33.127Z,12.70
2019-05-11T07:12:33.076Z,9.00
2019-05-11T07:13:33.079Z,9.70
2019-05-11T07:14:33.063Z,9.30
2019-05-11T07:15:33.060Z,9.00
2019-05-11T07:16:33.036Z,10.20
2019-05-11T07:17:33.058Z,10.80
2019-05-11T07:18:33.018Z,10.40
2019-05-11T07:19:33.019Z,10.80
2019-05-11T07:20:33.000Z,9.60
2019-05-11T07:21:32.984Z,8.90
2019-05-11T07:22:32.997Z,9.70
2019-05-11T07:23:32.965Z,9.30
2019-05-11T07:24:32.994Z,10.30
2019-05-11T07:25:32.941Z,10.00
2019-05-11T07:26:32.933Z,9.50
2019-05-11T07:27:32.946Z,10.30
2019-05-11T07:28:32.907Z,9.00
2019-05-11T07:29:32.902Z,8.10
2019-05-11T07:30:32.889Z,8.40
2019-05-11T07:31:32.878Z,8.80
2019-05-11T07:32:32.882Z,8.00
2019-05-11T07:33:32.868Z,8.00
2019-05-11T07:34:32.843Z,7.60
2019-05-11T07:35:32.852Z,10.10
2019-05-11T07:36:32.835Z,9.80
2019-05-11T07:37:32.844Z,8.90
2019-05-11T07:38:32.819Z,7.80
2019-05-11T07:39:32.797Z,8.40
2019-05-11T07:40:32.795Z,8.20
2019-05-11T07:41:32.776Z,9.60
2019-05-11T07:42:32.769Z,7.70
2019-05-11T07:43:32.780Z,10.00
2019-05-11T07:44:37.843Z,9.40
2019-05-11T07:45:33.720Z,10.30
2019-05-11T07:46:32.713Z,9.10
2019-05-11T07:47:32.723Z,7.70
2019-05-11T07:48:32.700Z,9.60
2019-05-11T07:49:32.686Z,9.40
2019-05-11T07:50:32.673Z,9.50
2019-05-11T07:51:32.660Z,8.50
2019-05-11T07:52:32.668Z,8.50
2019-05-11T07:53:32.660Z,10.70
2019-05-11T07:54:32.632Z,8.80
2019-05-11T07:55:32.622Z,7.80
2019-05-11T07:56:32.610Z,7.60
2019-05-11T07:57:32.594Z,8.70
2019-05-11T07:58:32.603Z,9.80
2019-05-11T07:59:32.577Z,8.20
2019-05-11T08:00:36.333Z,8.80
2019-05-11T08:01:33.555Z,10.20
2019-05-11T08:02:32.555Z,9.00
2019-05-11T08:03:32.554Z,9.20
2019-05-11T08:04:32.525Z,8.30
2019-05-11T08:05:32.507Z,9.20
2019-05-11T08:06:32.498Z,8.30
2019-05-11T08:07:32.486Z,9.80
2019-05-11T08:08:32.500Z,10.30
2019-05-11T08:09:32.471Z,9.10
2019-05-11T08:10:32.460Z,9.40
2019-05-11T08:11:32.446Z,9.50
2019-05-11T08:12:32.440Z,8.80
2019-05-11T08:13:32.457Z,11.70
2019-05-11T08:14:32.422Z,9.30
2019-05-11T08:15:32.403Z,9.10
2019-05-11T08:16:32.387Z,9.10
2019-05-11T08:17:32.387Z,7.80
2019-05-11T08:18:32.391Z,9.00
2019-05-11T08:19:32.396Z,10.50
2019-05-11T08:20:32.346Z,7.90
2019-05-11T08:21:32.340Z,10.70
2019-05-11T08:22:32.326Z,9.00
2019-05-11T08:23:32.329Z,8.70
2019-05-11T08:24:32.325Z,7.40
2019-05-11T08:25:32.296Z,7.20
2019-05-11T08:26:32.292Z,7.70
2019-05-11T08:27:32.274Z,8.70
2019-05-11T08:28:32.283Z,8.60
2019-05-11T08:29:32.251Z,8.00
2019-05-11T08:30:32.240Z,7.70
2019-05-11T08:31:32.237Z,8.00
2019-05-11T08:32:32.216Z,6.80
2019-05-11T08:33:32.203Z,8.00
2019-05-11T08:34:32.233Z,7.80
2019-05-11T08:35:32.203Z,7.60
2019-05-11T08:36:32.174Z,9.80
2019-05-11T08:37:32.161Z,7.90
2019-05-11T08:38:32.157Z,7.90
2019-05-11T08:39:32.158Z,9.40
2019-05-11T08:40:32.133Z,7.40
2019-05-11T08:41:32.119Z,8.00
2019-05-11T08:42:32.111Z,7.90
2019-05-11T08:43:32.103Z,7.90
2019-05-11T08:44:32.119Z,7.60
2019-05-11T08:45:32.076Z,8.50
2019-05-11T08:46:32.070Z,7.50
2019-05-11T08:47:32.061Z,7.00
2019-05-11T08:48:32.055Z,7.40
2019-05-11T08:49:32.061Z,7.10
2019-05-11T08:50:32.026Z,8.10
2019-05-11T08:51:32.020Z,6.80
2019-05-11T08:52:32.017Z,7.70
2019-05-11T08:53:31.994Z,7.20
2019-05-11T08:54:32.007Z,7.60
2019-05-11T08:55:31.984Z,7.30
2019-05-11T08:56:31.963Z,8.10
2019-05-11T08:57:31.945Z,7.10
2019-05-11T08:58:31.934Z,6.50
2019-05-11T08:59:31.942Z,7.10
2019-05-11T09:00:31.959Z,6.40
2019-05-11T09:01:31.905Z,9.40
2019-05-11T09:02:31.899Z,8.10
2019-05-11T09:03:31.931Z,7.60
2019-05-11T09:04:31.873Z,7.40
2019-05-11T09:05:31.895Z,6.20
2019-05-11T09:06:31.858Z,7.20
2019-05-11T09:07:31.843Z,7.40
2019-05-11T09:08:31.831Z,7.80
2019-05-11T09:09:31.815Z,10.00
2019-05-11T09:10:31.839Z,7.70
2019-05-11T09:11:31.836Z,6.30
2019-05-11T09:12:31.790Z,6.00
2019-05-11T09:13:31.776Z,6.70
2019-05-11T09:14:31.773Z,5.70
2019-05-11T09:15:36.839Z,6.10
2019-05-11T09:16:32.757Z,5.70
2019-05-11T09:17:31.737Z,6.00
2019-05-11T09:18:31.721Z,5.60
2019-05-11T09:19:31.708Z,5.80
2019-05-11T09:20:31.701Z,5.20
2019-05-11T09:21:31.719Z,5.70
2019-05-11T09:22:31.705Z,6.20
2019-05-11T09:23:37.371Z,5.70
2019-05-11T09:24:32.655Z,6.30
2019-05-11T09:25:31.646Z,7.20
2019-05-11T09:26:31.655Z,6.00
2019-05-11T09:27:31.626Z,6.10
2019-05-11T09:28:31.621Z,5.50
2019-05-11T09:29:31.624Z,5.30
2019-05-11T09:30:31.588Z,5.10
2019-05-11T09:31:31.599Z,6.40
2019-05-11T09:32:31.581Z,6.30
2019-05-11T09:33:31.562Z,5.50
2019-05-11T09:34:31.564Z,5.80
2019-05-11T09:35:45.734Z,6.80
2019-05-11T09:36:32.590Z,6.40
2019-05-11T09:37:31.522Z,6.60
2019-05-11T09:38:31.511Z,5.70
2019-05-11T09:39:31.505Z,5.90
2019-05-11T09:40:31.483Z,6.20
2019-05-11T09:41:31.474Z,5.70
2019-05-11T09:42:31.488Z,5.90
2019-05-11T09:43:31.447Z,5.00
2019-05-11T09:44:31.459Z,5.90
2019-05-11T09:45:44.642Z,5.70
2019-05-11T09:46:32.483Z,5.60
2019-05-11T09:47:31.424Z,6.10
2019-05-11T09:48:31.394Z,6.20
2019-05-11T09:49:43.824Z,5.20
2019-05-11T09:50:32.376Z,4.80
2019-05-11T09:51:31.365Z,4.20
2019-05-11T09:52:32.537Z,5.90
2019-05-11T09:53:31.347Z,5.40
2019-05-11T09:54:31.334Z,4.70
2019-05-11T09:55:31.324Z,5.10
2019-05-11T09:56:31.313Z,6.50
2019-05-11T09:57:31.320Z,5.40
2019-05-11T09:58:31.293Z,4.40
2019-05-11T09:59:31.284Z,4.30
2019-05-11T10:00:31.257Z,4.50
2019-05-11T10:01:31.268Z,4.00
2019-05-11T10:02:31.258Z,3.70
2019-05-11T10:03:31.250Z,4.20
2019-05-11T10:04:31.215Z,3.90
2019-05-11T10:05:31.239Z,3.80
2019-05-11T10:06:31.193Z,3.50
2019-05-11T10:07:32.605Z,3.90
2019-05-11T10:08:31.184Z,3.80
2019-05-11T10:09:31.166Z,3.50
2019-05-11T10:10:31.157Z,3.60
2019-05-11T10:11:31.146Z,3.80
2019-05-11T10:12:31.127Z,4.20
2019-05-11T10:13:31.134Z,4.20
2019-05-11T10:14:31.111Z,3.50
2019-05-11T10:15:31.097Z,3.50
2019-05-11T10:16:31.089Z,3.30
2019-05-11T10:17:31.088Z,3.80
2019-05-11T10:18:31.105Z,4.00
2019-05-11T10:19:31.108Z,3.40
2019-05-11T10:20:31.052Z,3.60
2019-05-11T10:21:31.033Z,3.70
2019-05-11T10:22:31.029Z,3.50
2019-05-11T10:23:31.035Z,3.60
2019-05-11T10:24:31.005Z,4.40
2019-05-11T10:25:31.004Z,3.30
2019-05-11T10:26:30.983Z,3.40
2019-05-11T10:27:30.983Z,4.10
2019-05-11T10:28:30.986Z,4.10
2019-05-11T10:29:33.875Z,3.40
2019-05-11T10:30:30.948Z,3.60
2019-05-11T10:31:30.925Z,3.50
2019-05-11T10:32:30.915Z,3.80
2019-05-11T10:33:30.907Z,3.60
2019-05-11T10:34:30.919Z,3.00
2019-05-11T10:35:30.884Z,3.90
2019-05-11T10:36:30.873Z,3.70
2019-05-11T10:37:30.859Z,4.20
2019-05-11T10:38:30.857Z,3.50
2019-05-11T10:39:30.847Z,3.60
2019-05-11T10:40:30.829Z,3.90
2019-05-11T10:41:30.809Z,3.10
2019-05-11T10:42:30.800Z,3.60
2019-05-11T10:43:30.792Z,5.10
2019-05-11T10:44:30.795Z,4.50
2019-05-11T10:45:30.769Z,6.00
2019-05-11T10:46:30.759Z,4.90
2019-05-11T10:47:30.750Z,4.10
2019-05-11T10:48:30.737Z,4.10
2019-05-11T10:49:30.741Z,4.50
2019-05-11T10:50:30.714Z,4.70
2019-05-11T10:51:30.711Z,4.10
2019-05-11T10:52:30.685Z,3.10
2019-05-11T10:53:30.678Z,3.00
2019-05-11T10:54:30.679Z,3.00
2019-05-11T10:55:30.651Z,2.70
2019-05-11T10:56:30.644Z,2.40
2019-05-11T10:57:30.632Z,2.50
2019-05-11T10:58:30.625Z,2.70
2019-05-11T10:59:30.626Z,2.80
2019-05-11T11:00:30.610Z,3.30
2019-05-11T11:01:30.598Z,3.30
2019-05-11T11:02:30.589Z,2.80
2019-05-11T11:03:30.561Z,3.00
2019-05-11T11:04:30.573Z,2.80
2019-05-11T11:05:30.544Z,2.80
2019-05-11T11:06:30.535Z,3.80
2019-05-11T11:07:30.519Z,3.30
2019-05-11T11:08:30.513Z,2.90
2019-05-11T11:09:30.524Z,2.30
2019-05-11T11:10:30.517Z,2.40
2019-05-11T11:11:30.476Z,2.60
2019-05-11T11:12:30.474Z,2.80
2019-05-11T11:13:30.454Z,2.90
2019-05-11T11:14:30.447Z,3.90
2019-05-11T11:15:30.457Z,3.30
2019-05-11T11:16:36.829Z,3.20
2019-05-11T11:17:31.413Z,3.20
2019-05-11T11:18:30.413Z,2.50
2019-05-11T11:19:30.392Z,2.40
2019-05-11T11:20:30.398Z,2.50
2019-05-11T11:21:30.397Z,2.80
2019-05-11T11:22:39.356Z,2.90
2019-05-11T11:23:31.340Z,3.20
2019-05-11T11:24:30.337Z,3.10
2019-05-11T11:25:30.350Z,4.00
2019-05-11T11:26:30.314Z,2.70
2019-05-11T11:27:30.308Z,3.30
2019-05-11T11:28:30.301Z,2.60
2019-05-11T11:29:30.278Z,3.70
2019-05-11T11:30:30.272Z,3.50
2019-05-11T11:31:30.278Z,3.10
2019-05-11T11:32:30.247Z,2.70
2019-05-11T11:33:30.234Z,2.90
2019-05-11T11:34:30.264Z,2.80
2019-05-11T11:35:30.215Z,3.00
2019-05-11T11:36:30.233Z,2.50
2019-05-11T11:37:30.195Z,2.50
2019-05-11T11:38:30.199Z,2.30
2019-05-11T11:39:30.167Z,2.60
2019-05-11T11:40:30.153Z,2.60
2019-05-11T11:41:30.176Z,3.90
2019-05-11T11:42:30.163Z,2.50
2019-05-11T11:43:30.133Z,2.40
2019-05-11T11:44:30.119Z,2.80
2019-05-11T11:45:30.114Z,2.50
2019-05-11T11:46:30.101Z,3.30
2019-05-11T11:47:30.079Z,2.80
2019-05-11T11:48:30.081Z,2.70
2019-05-11T11:49:30.094Z,2.60
2019-05-11T11:50:30.052Z,2.50
2019-05-11T11:51:30.067Z,2.30
2019-05-11T11:52:30.029Z,2.40
2019-05-11T11:53:30.012Z,2.10
2019-05-11T11:54:30.002Z,2.60
2019-05-11T11:55:29.992Z,2.40
2019-05-11T11:56:29.980Z,1.90
2019-05-11T11:57:30.008Z,2.30
2019-05-11T11:58:29.962Z,2.00
2019-05-11T11:59:29.943Z,2.30
2019-05-11T12:00:29.930Z,2.20
2019-05-11T12:01:29.920Z,3.20
2019-05-11T12:02:29.947Z,2.00
2019-05-11T12:03:29.900Z,2.40
2019-05-11T12:04:29.883Z,2.10
2019-05-11T12:05:29.884Z,2.50
2019-05-11T12:06:29.872Z,2.80
2019-05-11T12:07:29.874Z,3.30
2019-05-11T12:08:29.838Z,2.90
2019-05-11T12:09:29.836Z,3.10
2019-05-11T12:10:29.823Z,3.50
2019-05-11T12:11:29.815Z,3.10
2019-05-11T12:12:29.812Z,3.10
2019-05-11T12:13:29.865Z,2.70
2019-05-11T12:14:29.771Z,3.00
2019-05-11T12:15:29.777Z,3.10
2019-05-11T12:16:29.781Z,2.90
2019-05-11T12:17:29.795Z,2.90
2019-05-11T12:18:29.736Z,2.50
2019-05-11T12:19:29.721Z,2.40
2019-05-11T12:20:29.734Z,3.00
2019-05-11T12:21:29.734Z,2.60
2019-05-11T12:22:29.720Z,2.50
2019-05-11T12:23:29.703Z,2.30
2019-05-11T12:24:29.679Z,2.40
2019-05-11T12:25:29.674Z,4.00
2019-05-11T12:26:29.663Z,2.30
2019-05-11T12:27:29.637Z,2.40
2019-05-11T12:28:29.642Z,2.40
2019-05-11T12:29:29.617Z,2.20
2019-05-11T12:30:29.611Z,2.50
2019-05-11T12:31:32.587Z,2.30
2019-05-11T12:32:29.605Z,2.40
2019-05-11T12:33:29.589Z,2.80
2019-05-11T12:34:29.583Z,2.30
2019-05-11T12:35:29.561Z,2.70
2019-05-11T12:36:29.542Z,2.30
2019-05-11T12:37:29.530Z,2.80
2019-05-11T12:38:29.540Z,2.50
2019-05-11T12:39:29.507Z,2.50
2019-05-11T12:40:29.499Z,2.60
2019-05-11T12:41:29.482Z,5.10
2019-05-11T12:42:29.481Z,4.00
2019-05-11T12:43:29.500Z,2.50
2019-05-11T12:44:29.453Z,3.30
2019-05-11T12:45:29.719Z,3.20
2019-05-11T12:46:29.432Z,2.70
2019-05-11T12:47:29.429Z,2.50
2019-05-11T12:48:29.446Z,2.70
2019-05-11T12:49:29.403Z,2.60
2019-05-11T12:50:30.298Z,3.20
2019-05-11T12:51:29.382Z,2.40
2019-05-11T12:52:29.368Z,2.90
2019-05-11T12:53:29.385Z,2.70
2019-05-11T12:54:29.346Z,2.90
2019-05-11T12:55:29.336Z,2.90
2019-05-11T12:56:29.325Z,2.70
2019-05-11T12:57:29.310Z,3.60
2019-05-11T12:58:29.319Z,2.90
2019-05-11T12:59:29.307Z,3.30
2019-05-11T13:00:31.426Z,2.70
2019-05-11T13:01:29.266Z,3.00
2019-05-11T13:02:29.266Z,3.10
2019-05-11T13:03:29.288Z,2.60
2019-05-11T13:04:29.251Z,3.20
2019-05-11T13:05:29.228Z,2.70
2019-05-11T13:06:29.237Z,3.20